Dades meteomassalio
Diari Summary for Diciembre 2, 2017 Units:  English    Metric   Both
« Previous Day
Next Day »
Diari Semanal Mensual Anual Personalitzat
  Maxima: Minima: Mijana:
Temperatura: TemperatureC °F 1.1 °F 3.4 °F
Rosada: DewpointC °F -5.9 °F -3.3 °F
Humitat: Humidity % 36 % 63 %
Velocitat del vent: WindSpeedKMH mph 20.4 mph 39.2 mph
Racha vent: WindSpeedGustKMH mph - -
Vent:- - WNW
Pressio: PressurehPa in 1019.2 in -
Pluja: 0.0 in    
Historical Graphs
 
 
Tabular Data for Diciembre 2, 2017
Time Temperature Dew Point Pressure Wind Wind Speed Wind Gust Humidity Rainfall Rate (Hourly) solar Conditions
TemperatureC °F DewpointC °F PressurehPa in Calm     Humidity % HourlyPrecipMM in SolarRadiationWatts/m^2 W/m2 Conditions
00:02 1.7 °F -2.7 °F 1021.6 in NNW 37.0 mph 37.0 mph 73 % 0.0 in 0.0 W/m2 RA
00:07 1.7 °F -2.5 °F 1021.6 in NW 50.0 mph 50.0 mph 74 % 0.0 in 0.0 W/m2 CLR
00:12 2.2 °F -1.9 °F 1021.2 in NNW 46.3 mph 46.3 mph 74 % 0.0 in 0.0 W/m2 CLR
00:17 2.2 °F -2.1 °F 1021.2 in NNW 31.5 mph 31.5 mph 73 % 0.0 in 0.0 W/m2 CLR
00:23 2.2 °F -1.9 °F 1021.2 in NNW 40.7 mph 40.7 mph 74 % 0.0 in 0.0 W/m2 CLR
00:28 2.2 °F -1.9 °F 1021.2 in NNW 45.1 mph 45.1 mph 74 % 0.0 in 0.0 W/m2 CLR
00:33 1.7 °F -2.5 °F 1021.2 in NNW 33.8 mph 33.8 mph 74 % 0.0 in 0.0 W/m2 CLR
00:43 1.7 °F -2.3 °F 1021.2 in NW 35.2 mph 35.2 mph 75 % 0.0 in 0.0 W/m2 CLR
00:48 1.7 °F -2.5 °F 1021.2 in NW 31.5 mph 31.5 mph 74 % 0.0 in 0.0 W/m2 CLR
01:03 1.7 °F -2.5 °F 1021.2 in NNW 37.0 mph 37.0 mph 74 % 0.0 in 0.0 W/m2 CLR
01:08 1.7 °F -2.5 °F 1021.2 in North 31.5 mph 31.5 mph 74 % 0.0 in 0.0 W/m2 CLR
01:13 1.7 °F -2.5 °F 1021.2 in NNW 24.1 mph 24.1 mph 74 % 0.0 in 0.0 W/m2 CLR
01:18 1.7 °F -2.5 °F 1021.6 in NW 33.3 mph 33.3 mph 74 % 0.0 in 0.0 W/m2 CLR
01:23 1.7 °F -2.5 °F 1021.6 in NW 31.5 mph 31.5 mph 74 % 0.0 in 0.0 W/m2 CLR
01:28 1.7 °F -2.5 °F 1021.2 in NNW 33.3 mph 33.3 mph 74 % 0.0 in 0.0 W/m2 CLR
01:33 1.7 °F -2.5 °F 1021.2 in NW 24.1 mph 24.1 mph 74 % 0.0 in 0.0 W/m2 CLR
01:43 2.2 °F -1.9 °F 1021.2 in North 42.6 mph 42.6 mph 74 % 0.0 in 0.0 W/m2 CLR
01:53 2.2 °F -1.8 °F 1021.2 in NNW 37.0 mph 37.0 mph 75 % 0.0 in 0.0 W/m2 CLR
01:58 2.2 °F -1.8 °F 1021.2 in NNW 35.2 mph 35.2 mph 75 % 0.0 in 0.0 W/m2 CLR
02:03 2.2 °F -1.9 °F 1021.2 in NNW 25.9 mph 25.9 mph 74 % 0.0 in 0.0 W/m2 CLR
02:08 2.2 °F -1.8 °F 1021.2 in NNW 29.6 mph 29.6 mph 75 % 0.0 in 0.0 W/m2 CLR
02:13 2.2 °F -1.8 °F 1021.2 in NNW 30.6 mph 30.6 mph 75 % 0.0 in 0.0 W/m2 CLR
02:18 2.2 °F -1.8 °F 1021.2 in NW 22.2 mph 22.2 mph 75 % 0.0 in 0.0 W/m2 CLR
02:23 1.7 °F -2.3 °F 1021.2 in NNW 29.6 mph 29.6 mph 75 % 0.0 in 0.0 W/m2 CLR
02:28 2.2 °F -1.8 °F 1021.2 in NNW 22.5 mph 22.5 mph 75 % 0.0 in 0.0 W/m2 CLR
02:33 2.2 °F -1.6 °F 1021.2 in NNW 35.2 mph 35.2 mph 76 % 0.0 in 0.0 W/m2 CLR
02:38 2.2 °F -1.6 °F 1021.2 in NNW 29.6 mph 29.6 mph 76 % 0.0 in 0.0 W/m2 CLR
02:43 2.2 °F -1.6 °F 1021.2 in NNW 38.9 mph 38.9 mph 76 % 0.0 in 0.0 W/m2 CLR
02:53 2.2 °F -1.4 °F 1020.9 in NNW 25.9 mph 25.9 mph 77 % 0.0 in 0.0 W/m2 CLR
02:58 2.2 °F -1.4 °F 1020.9 in North 27.4 mph 27.4 mph 77 % 0.0 in 0.0 W/m2 CLR
03:03 2.2 °F -1.4 °F 1020.9 in NNW 40.7 mph 40.7 mph 77 % 0.0 in 0.0 W/m2 CLR
03:08 2.2 °F -1.2 °F 1020.9 in NNW 29.6 mph 29.9 mph 78 % 0.0 in 0.0 W/m2 CLR
03:13 2.2 °F -1.2 °F 1020.9 in NNW 40.7 mph 40.7 mph 78 % 0.0 in 0.0 W/m2 CLR
03:18 2.2 °F -1.4 °F 1020.9 in NNW 33.8 mph 33.8 mph 77 % 0.0 in 0.0 W/m2 CLR
03:23 2.2 °F -1.4 °F 1020.5 in NNW 33.3 mph 33.3 mph 77 % 0.0 in 0.0 W/m2 CLR
03:28 2.2 °F -1.2 °F 1020.5 in North 38.9 mph 38.9 mph 78 % 0.0 in 0.0 W/m2 CLR
03:33 2.2 °F -1.4 °F 1020.5 in North 38.9 mph 38.9 mph 77 % 0.0 in 0.0 W/m2 CLR
03:39 2.2 °F -1.4 °F 1020.5 in North 40.7 mph 40.7 mph 77 % 0.0 in 0.0 W/m2 CLR
03:44 2.8 °F -0.8 °F 1020.5 in NNW 40.7 mph 40.7 mph 77 % 0.0 in 0.0 W/m2 CLR
03:49 2.8 °F -0.8 °F 1020.5 in North 35.4 mph 35.4 mph 77 % 0.0 in 0.0 W/m2 CLR
03:50 2.8 °F -0.8 °F 1020.5 in North 31.5 mph 31.5 mph 77 % 0.0 in 0.0 W/m2 CLR
04:00 2.2 °F -1.2 °F 1020.5 in North 41.8 mph 41.8 mph 78 % 0.0 in 0.0 W/m2 CLR
04:05 2.2 °F -1.1 °F 1020.5 in North 31.5 mph 31.5 mph 79 % 0.0 in 0.0 W/m2 CLR
04:10 2.2 °F -0.9 °F 1020.2 in NNW 41.8 mph 41.8 mph 80 % 0.0 in 0.0 W/m2 CLR
04:15 2.2 °F -0.9 °F 1020.2 in NNW 40.2 mph 40.2 mph 80 % 0.0 in 0.0 W/m2 CLR
04:20 2.2 °F -0.9 °F 1020.2 in NW 42.6 mph 42.6 mph 80 % 0.0 in 0.0 W/m2 CLR
04:24 2.2 °F -0.9 °F 1020.2 in NNW 35.2 mph 35.2 mph 80 % 0.0 in 0.0 W/m2 CLR
04:25 2.2 °F -0.7 °F 1020.2 in NW 37.0 mph 37.0 mph 81 % 0.0 in 0.0 W/m2 CLR
04:27 2.2 °F -0.7 °F 1020.2 in NNW 43.4 mph 43.4 mph 81 % 0.0 in 0.0 W/m2 CLR
04:30 2.2 °F -0.7 °F 1020.2 in NNW 48.1 mph 48.1 mph 81 % 0.0 in 0.0 W/m2 CLR
04:35 2.2 °F -0.7 °F 1020.2 in NW 35.2 mph 35.2 mph 81 % 0.0 in 0.0 W/m2 CLR
04:45 1.7 °F -1.2 °F 1020.2 in NNW 35.4 mph 35.4 mph 81 % 0.0 in 0.0 W/m2 CLR
04:50 2.2 °F -0.9 °F 1020.2 in NNW 33.8 mph 33.8 mph 80 % 0.0 in 0.0 W/m2 CLR
04:55 2.2 °F -0.9 °F 1019.9 in NNW 38.9 mph 38.9 mph 80 % 0.0 in 0.0 W/m2 CLR
05:00 2.2 °F -0.9 °F 1020.2 in NNW 42.6 mph 42.6 mph 80 % 0.0 in 0.0 W/m2 CLR
05:10 2.2 °F -0.9 °F 1020.2 in NNW 38.9 mph 38.9 mph 80 % 0.0 in 0.0 W/m2 CLR
05:20 2.2 °F -0.9 °F 1020.2 in North 31.5 mph 31.5 mph 80 % 0.0 in 0.0 W/m2 CLR
05:25 2.2 °F -0.9 °F 1020.2 in NNW 29.6 mph 29.6 mph 80 % 0.0 in 0.0 W/m2 CLR
05:30 2.2 °F -0.9 °F 1020.2 in NNW 29.6 mph 29.6 mph 80 % 0.0 in 0.0 W/m2 CLR
05:35 2.2 °F -0.9 °F 1020.2 in North 40.7 mph 40.7 mph 80 % 0.0 in 0.0 W/m2 CLR
05:40 2.2 °F -0.9 °F 1020.2 in NNW 42.6 mph 42.6 mph 80 % 0.0 in 0.0 W/m2 CLR
05:45 2.2 °F -0.9 °F 1020.5 in North 27.8 mph 27.8 mph 80 % 0.0 in 0.0 W/m2 CLR
05:50 2.2 °F -0.9 °F 1020.5 in North 38.9 mph 38.9 mph 80 % 0.0 in 0.0 W/m2 CLR
05:55 2.2 °F -1.1 °F 1020.2 in NNW 35.2 mph 35.2 mph 79 % 0.0 in 0.0 W/m2 CLR
06:05 2.2 °F -1.1 °F 1020.2 in NNW 42.6 mph 42.6 mph 79 % 0.0 in 0.0 W/m2 CLR
06:10 2.2 °F -1.1 °F 1020.2 in NW 31.5 mph 31.5 mph 79 % 0.0 in 0.0 W/m2 CLR
06:20 2.2 °F -1.2 °F 1020.2 in North 48.1 mph 48.1 mph 78 % 0.0 in 0.0 W/m2 CLR
06:25 2.2 °F -1.2 °F 1020.2 in NW 31.5 mph 31.5 mph 78 % 0.0 in 0.0 W/m2 CLR
06:30 2.2 °F -1.2 °F 1020.2 in NNW 57.4 mph 57.4 mph 78 % 0.0 in 0.0 W/m2 CLR
06:35 2.2 °F -1.4 °F 1020.2 in NNW 46.3 mph 46.3 mph 77 % 0.0 in 0.0 W/m2 CLR
06:40 2.2 °F -1.4 °F 1020.2 in North 43.4 mph 43.4 mph 77 % 0.0 in 0.0 W/m2 CLR
06:45 2.2 °F -1.4 °F 1020.2 in North 40.7 mph 40.7 mph 77 % 0.0 in 0.0 W/m2 CLR
06:50 2.2 °F -1.4 °F 1020.2 in North 56.3 mph 56.3 mph 77 % 0.0 in 0.0 W/m2 CLR
06:55 2.2 °F -1.6 °F 1020.5 in NNW 48.1 mph 48.1 mph 76 % 0.0 in 0.0 W/m2 CLR
07:00 2.2 °F -1.6 °F 1020.5 in North 46.3 mph 46.3 mph 76 % 0.0 in 0.0 W/m2 CLR
07:05 2.2 °F -1.6 °F 1020.5 in North 44.4 mph 44.4 mph 76 % 0.0 in 0.0 W/m2 CLR
07:20 2.2 °F -1.6 °F 1020.5 in NNW 38.9 mph 38.9 mph 76 % 0.0 in 0.0 W/m2 CLR
07:25 1.7 °F -2.3 °F 1020.5 in North 35.2 mph 35.2 mph 75 % 0.0 in 0.0 W/m2 CLR
07:30 2.2 °F -1.8 °F 1020.5 in NNW 45.1 mph 45.1 mph 75 % 0.0 in 0.0 W/m2 CLR
07:35 1.7 °F -2.3 °F 1020.5 in NNW 40.7 mph 40.7 mph 75 % 0.0 in 0.0 W/m2 CLR
07:40 2.2 °F -1.8 °F 1020.5 in North 46.3 mph 46.3 mph 75 % 0.0 in 0.0 W/m2 CLR
07:45 1.7 °F -2.3 °F 1020.9 in NNW 37.0 mph 37.0 mph 75 % 0.0 in 0.0 W/m2 CLR
07:50 1.7 °F -2.5 °F 1020.9 in North 40.2 mph 40.2 mph 74 % 0.0 in 0.0 W/m2 CLR
08:05 1.7 °F -2.5 °F 1020.9 in North 46.7 mph 46.7 mph 74 % 0.0 in 5.0 W/m2 OVC
08:10 1.7 °F -2.5 °F 1021.2 in NNW 48.1 mph 48.1 mph 74 % 0.0 in 7.0 W/m2 BKN
08:15 1.7 °F -2.5 °F 1021.2 in NNW 41.8 mph 41.8 mph 74 % 0.0 in 9.0 W/m2 BKN
08:20 1.7 °F -2.5 °F 1020.9 in NNW 40.7 mph 40.7 mph 74 % 0.0 in 11.0 W/m2 BKN
08:35 1.7 °F -2.7 °F 1021.2 in North 42.6 mph 42.6 mph 73 % 0.0 in 19.0 W/m2 BKN
08:41 1.7 °F -2.8 °F 1021.2 in NNW 44.4 mph 44.4 mph 72 % 0.0 in 28.0 W/m2 BKN
08:51 1.7 °F -2.8 °F 1021.2 in NNW 44.4 mph 44.4 mph 72 % 0.0 in 42.0 W/m2 SCT
09:01 1.7 °F -3.1 °F 1021.2 in NW 40.7 mph 40.7 mph 71 % 0.0 in 72.0 W/m2 FEW
09:06 2.2 °F -2.7 °F 1021.6 in NNW 44.4 mph 44.4 mph 70 % 0.0 in 72.0 W/m2 SCT
09:11 2.2 °F -2.7 °F 1021.6 in NNW 44.4 mph 44.4 mph 70 % 0.0 in 91.0 W/m2 FEW
09:16 2.2 °F -2.9 °F 1021.6 in North 35.2 mph 35.2 mph 69 % 0.0 in 95.0 W/m2 CLR
09:31 2.2 °F -3.1 °F 1021.6 in North 53.7 mph 53.7 mph 68 % 0.0 in 155.0 W/m2 CLR
09:36 2.2 °F -3.3 °F 1021.6 in NNW 40.7 mph 40.7 mph 67 % 0.0 in 142.0 W/m2 CLR
09:41 2.2 °F -3.3 °F 1021.6 in North 38.9 mph 38.9 mph 67 % 0.0 in 183.0 W/m2 CLR
09:46 2.2 °F -3.5 °F 1021.2 in NW 42.6 mph 42.6 mph 66 % 0.0 in 197.0 W/m2 CLR
09:51 2.8 °F -3.2 °F 1021.2 in North 46.7 mph 46.7 mph 65 % 0.0 in 142.0 W/m2 CLR
10:06 2.8 °F -3.6 °F 1021.2 in NNW 55.5 mph 55.5 mph 63 % 0.0 in 251.0 W/m2 CLR
10:11 2.8 °F -3.8 °F 1021.2 in NNW 48.1 mph 48.1 mph 62 % 0.0 in 264.0 W/m2 CLR
10:16 3.3 °F -3.5 °F 1021.2 in North 62.9 mph 62.9 mph 61 % 0.0 in 274.0 W/m2 CLR
10:21 3.3 °F -3.5 °F 1021.2 in NNW 44.4 mph 44.4 mph 61 % 0.0 in 285.0 W/m2 CLR
10:26 3.3 °F -3.9 °F 1020.9 in North 45.1 mph 45.1 mph 59 % 0.0 in 297.0 W/m2 CLR
10:31 3.3 °F -4.2 °F 1020.9 in NNW 55.5 mph 55.5 mph 58 % 0.0 in 308.0 W/m2 CLR
10:41 3.3 °F -4.4 °F 1021.2 in North 40.7 mph 40.7 mph 57 % 0.0 in 325.0 W/m2 CLR
10:51 3.9 °F -4.3 °F 1021.6 in North 53.7 mph 53.7 mph 55 % 0.0 in 343.0 W/m2 CLR
10:56 3.9 °F -4.3 °F 1021.6 in NW 50.0 mph 50.0 mph 55 % 0.0 in 352.0 W/m2 CLR
11:06 4.4 °F -4.1 °F 1021.6 in North 46.7 mph 46.7 mph 54 % 0.0 in 366.0 W/m2 CLR
11:11 4.4 °F -4.1 °F 1021.6 in NNW 38.6 mph 38.6 mph 54 % 0.0 in 373.0 W/m2 CLR
11:16 4.4 °F -4.3 °F 1021.6 in North 41.8 mph 41.8 mph 53 % 0.0 in 380.0 W/m2 CLR
11:21 4.4 °F -4.1 °F 1021.6 in NW 43.4 mph 43.4 mph 54 % 0.0 in 385.0 W/m2 CLR
11:26 4.4 °F -4.6 °F 1021.9 in North 42.6 mph 42.6 mph 52 % 0.0 in 394.0 W/m2 CLR
11:31 4.4 °F -4.6 °F 1021.6 in North 42.6 mph 42.6 mph 52 % 0.0 in 399.0 W/m2 CLR
11:41 5.0 °F -4.3 °F 1021.6 in North 48.1 mph 48.1 mph 51 % 0.0 in 411.0 W/m2 CLR
11:46 5.0 °F -4.3 °F 1021.6 in North 51.8 mph 51.8 mph 51 % 0.0 in 415.0 W/m2 CLR
11:51 5.0 °F -4.6 °F 1021.6 in North 55.5 mph 55.5 mph 50 % 0.0 in 422.0 W/m2 CLR
11:56 5.0 °F -4.6 °F 1021.2 in North 45.1 mph 45.1 mph 50 % 0.0 in 427.0 W/m2 CLR
12:06 5.6 °F -4.1 °F 1021.6 in North 48.1 mph 48.1 mph 50 % 0.0 in 431.0 W/m2 CLR
12:16 5.6 °F -4.3 °F 1021.6 in NNE 51.8 mph 51.8 mph 49 % 0.0 in 441.0 W/m2 CLR
12:21 5.6 °F -4.6 °F 1021.2 in NNW 51.8 mph 51.8 mph 48 % 0.0 in 445.0 W/m2 CLR
12:26 5.6 °F -4.3 °F 1021.2 in North 55.5 mph 55.5 mph 49 % 0.0 in 446.0 W/m2 CLR
12:31 5.6 °F -4.3 °F 1021.2 in North 51.8 mph 51.8 mph 49 % 0.0 in 446.0 W/m2 CLR
12:36 5.6 °F -4.6 °F 1021.2 in North 44.4 mph 44.4 mph 48 % 0.0 in 446.0 W/m2 CLR
12:41 5.6 °F -4.6 °F 1021.2 in NNW 46.7 mph 46.7 mph 48 % 0.0 in 446.0 W/m2 CLR
12:46 5.6 °F -4.6 °F 1021.2 in NNE 55.5 mph 55.5 mph 48 % 0.0 in 446.0 W/m2 CLR
12:51 6.1 °F -4.1 °F 1021.2 in NNW 53.7 mph 53.7 mph 48 % 0.0 in 450.0 W/m2 CLR
12:56 6.1 °F -4.1 °F 1021.2 in North 43.4 mph 43.4 mph 48 % 0.0 in 445.0 W/m2 CLR
13:06 6.1 °F -4.7 °F 1020.9 in North 48.1 mph 48.1 mph 46 % 0.0 in 445.0 W/m2 CLR
13:16 6.1 °F -4.7 °F 1020.5 in North 46.3 mph 46.3 mph 46 % 0.0 in 443.0 W/m2 CLR
13:21 6.7 °F -4.4 °F 1020.5 in North 49.9 mph 49.9 mph 45 % 0.0 in 439.0 W/m2 CLR
13:22 6.7 °F -4.4 °F 1020.5 in North 48.1 mph 48.1 mph 45 % 0.0 in 441.0 W/m2 CLR
13:32 6.7 °F -4.4 °F 1020.5 in NNE 55.5 mph 55.5 mph 45 % 0.0 in 434.0 W/m2 CLR
13:37 6.7 °F -4.4 °F 1020.2 in NNE 51.8 mph 51.8 mph 45 % 0.0 in 429.0 W/m2 CLR
13:42 6.7 °F -4.4 °F 1020.2 in North 55.5 mph 55.5 mph 45 % 0.0 in 424.0 W/m2 CLR
13:47 6.7 °F -4.7 °F 1020.2 in North 61.1 mph 61.1 mph 44 % 0.0 in 422.0 W/m2 CLR
13:52 7.2 °F -4.2 °F 1019.9 in NNW 42.6 mph 42.6 mph 44 % 0.0 in 415.0 W/m2 CLR
13:57 7.2 °F -4.2 °F 1020.2 in North 46.3 mph 46.3 mph 44 % 0.0 in 408.0 W/m2 CLR
14:07 7.2 °F -4.6 °F 1020.2 in NNW 44.4 mph 44.4 mph 43 % 0.0 in 397.0 W/m2 CLR
14:12 7.2 °F -4.6 °F 1019.9 in NNW 42.6 mph 42.6 mph 43 % 0.0 in 392.0 W/m2 CLR
14:17 7.8 °F -4.1 °F 1019.9 in NNW 48.3 mph 48.3 mph 43 % 0.0 in 387.0 W/m2 CLR
14:22 7.8 °F -4.1 °F 1019.9 in North 48.1 mph 48.1 mph 43 % 0.0 in 378.0 W/m2 CLR
14:27 7.8 °F -4.1 °F 1019.9 in NW 51.8 mph 51.8 mph 43 % 0.0 in 367.0 W/m2 CLR
14:32 7.8 °F -4.3 °F 1019.9 in NNW 42.6 mph 42.6 mph 42 % 0.0 in 366.0 W/m2 CLR
14:48 8.3 °F -5.9 °F 1019.5 in NNW 45.1 mph 45.1 mph 36 % 0.0 in 341.0 W/m2 CLR
15:03 7.8 °F -3.7 °F 1019.5 in NNW 35.4 mph 35.4 mph 44 % 0.0 in 311.0 W/m2 CLR
15:08 7.8 °F -3.7 °F 1019.5 in NNW 31.5 mph 31.5 mph 44 % 0.0 in 304.0 W/m2 CLR
15:13 7.8 °F -3.7 °F 1019.5 in NNW 48.1 mph 48.1 mph 44 % 0.0 in 297.0 W/m2 CLR
15:18 7.8 °F -3.7 °F 1019.2 in NNW 50.0 mph 50.0 mph 44 % 0.0 in 287.0 W/m2 CLR
15:23 7.2 °F -4.2 °F 1019.5 in North 48.1 mph 48.1 mph 44 % 0.0 in 274.0 W/m2 CLR
15:28 7.2 °F -3.9 °F 1019.2 in NW 42.6 mph 42.6 mph 45 % 0.0 in 262.0 W/m2 CLR
15:43 7.2 °F -3.9 °F 1019.5 in North 46.3 mph 46.3 mph 45 % 0.0 in 218.0 W/m2 CLR
15:48 7.2 °F -3.7 °F 1019.5 in NNW 37.0 mph 37.0 mph 46 % 0.0 in 207.0 W/m2 CLR
15:58 6.7 °F -4.2 °F 1019.5 in North 42.6 mph 42.6 mph 46 % 0.0 in 181.0 W/m2 CLR
16:13 6.7 °F -4.2 °F 1019.2 in NNW 55.5 mph 55.5 mph 46 % 0.0 in 137.0 W/m2 CLR
16:18 6.1 °F -4.7 °F 1019.2 in NW 51.8 mph 51.8 mph 46 % 0.0 in 125.0 W/m2 CLR
16:23 6.1 °F -4.7 °F 1019.5 in NNW 51.8 mph 51.8 mph 46 % 0.0 in 109.0 W/m2 CLR
16:28 6.1 °F -4.4 °F 1019.5 in NNW 40.7 mph 40.7 mph 47 % 0.0 in 97.0 W/m2 CLR
16:33 6.1 °F -4.4 °F 1019.5 in WNW 35.2 mph 35.2 mph 47 % 0.0 in 86.0 W/m2 CLR
16:38 6.1 °F -4.4 °F 1019.5 in WNW 43.4 mph 43.4 mph 47 % 0.0 in 60.0 W/m2 SCT
16:43 6.1 °F -4.4 °F 1019.5 in NW 37.0 mph 37.0 mph 47 % 0.0 in 47.0 W/m2 SCT
16:48 5.6 °F -4.6 °F 1019.5 in NW 29.0 mph 29.0 mph 48 % 0.0 in 46.0 W/m2 SCT
16:53 5.6 °F -4.9 °F 1019.5 in North 40.2 mph 40.2 mph 47 % 0.0 in 39.0 W/m2 BKN
17:03 5.6 °F -4.6 °F 1019.5 in NNW 24.1 mph 24.1 mph 48 % 0.0 in 23.0 W/m2 BKN
17:08 5.6 °F -4.6 °F 1019.5 in North 44.4 mph 44.4 mph 48 % 0.0 in 18.0 W/m2 BKN
17:13 5.6 °F -4.6 °F 1019.9 in NW 37.0 mph 37.0 mph 48 % 0.0 in 14.0 W/m2 BKN
17:18 5.0 °F -4.8 °F 1019.9 in NW 42.6 mph 42.6 mph 49 % 0.0 in 12.0 W/m2 BKN
17:28 5.0 °F -4.1 °F 1019.9 in NNW 40.7 mph 40.7 mph 52 % 0.0 in 7.0 W/m2 BKN
17:33 5.0 °F -3.8 °F 1019.9 in NW 25.9 mph 25.9 mph 53 % 0.0 in 5.0 W/m2 OVC
17:38 4.4 °F -4.3 °F 1019.9 in NNW 44.4 mph 44.4 mph 53 % 0.0 in 0.0 W/m2 OVC
17:43 4.4 °F -4.3 °F 1020.2 in NW 35.2 mph 35.2 mph 53 % 0.0 in 0.0 W/m2 CLR
17:53 4.4 °F -4.1 °F 1020.2 in NW 38.9 mph 38.9 mph 54 % 0.0 in 0.0 W/m2 CLR
17:58 4.4 °F -4.3 °F 1020.2 in North 35.2 mph 35.2 mph 53 % 0.0 in 0.0 W/m2 CLR
18:03 3.9 °F -4.6 °F 1020.5 in NW 40.7 mph 40.7 mph 54 % 0.0 in 0.0 W/m2 CLR
18:08 3.9 °F -4.6 °F 1020.5 in NNW 29.6 mph 29.6 mph 54 % 0.0 in 0.0 W/m2 CLR
18:14 3.9 °F -4.6 °F 1020.5 in NNW 40.7 mph 40.7 mph 54 % 0.0 in 0.0 W/m2 CLR
18:19 3.9 °F -4.6 °F 1020.9 in NW 27.8 mph 27.8 mph 54 % 0.0 in 0.0 W/m2 CLR
18:24 3.9 °F -4.6 °F 1020.9 in NW 27.8 mph 27.8 mph 54 % 0.0 in 0.0 W/m2 CLR
18:29 3.9 °F -4.6 °F 1021.2 in NW 33.8 mph 33.8 mph 54 % 0.0 in 0.0 W/m2 CLR
18:39 3.9 °F -4.3 °F 1021.2 in NNW 42.6 mph 42.6 mph 55 % 0.0 in 0.0 W/m2 CLR
18:44 3.3 °F -4.8 °F 1021.2 in NNW 31.5 mph 31.5 mph 55 % 0.0 in 0.0 W/m2 CLR
18:49 3.3 °F -4.6 °F 1021.2 in NW 38.9 mph 38.9 mph 56 % 0.0 in 0.0 W/m2 CLR
18:54 3.3 °F -4.6 °F 1021.2 in NNW 37.0 mph 37.0 mph 56 % 0.0 in 0.0 W/m2 CLR
18:59 3.3 °F -4.4 °F 1021.2 in NNW 31.5 mph 31.5 mph 57 % 0.0 in 0.0 W/m2 CLR
19:04 3.3 °F -4.2 °F 1021.6 in NNW 27.8 mph 27.8 mph 58 % 0.0 in 0.0 W/m2 CLR
19:09 3.3 °F -4.2 °F 1021.6 in NW 30.6 mph 30.6 mph 58 % 0.0 in 0.0 W/m2 CLR
19:14 3.3 °F -4.2 °F 1021.6 in NNW 40.7 mph 40.7 mph 58 % 0.0 in 0.0 W/m2 CLR
19:19 3.3 °F -3.9 °F 1021.9 in NNW 38.9 mph 38.9 mph 59 % 0.0 in 0.0 W/m2 CLR
19:24 2.8 °F -4.4 °F 1022.2 in NNW 31.5 mph 31.5 mph 59 % 0.0 in 0.0 W/m2 CLR
19:29 2.8 °F -4.4 °F 1022.2 in North 43.4 mph 43.4 mph 59 % 0.0 in 0.0 W/m2 CLR
19:39 2.8 °F -4.2 °F 1022.2 in NW 31.5 mph 31.5 mph 60 % 0.0 in 0.0 W/m2 CLR
19:44 2.8 °F -4.2 °F 1022.2 in North 40.7 mph 40.7 mph 60 % 0.0 in 0.0 W/m2 CLR
19:49 2.8 °F -4.2 °F 1022.6 in NNW 33.3 mph 33.3 mph 60 % 0.0 in 0.0 W/m2 CLR
19:54 2.8 °F -4.2 °F 1022.6 in NW 37.0 mph 37.0 mph 60 % 0.0 in 0.0 W/m2 CLR
19:59 2.8 °F -4.2 °F 1022.6 in NNW 29.6 mph 29.6 mph 60 % 0.0 in 0.0 W/m2 CLR
20:04 2.8 °F -4.2 °F 1022.9 in NNW 27.8 mph 27.8 mph 60 % 0.0 in 0.0 W/m2 CLR
20:09 2.8 °F -4.2 °F 1022.9 in North 33.3 mph 33.3 mph 60 % 0.0 in 0.0 W/m2 CLR
20:14 2.8 °F -4.2 °F 1022.9 in NNW 33.3 mph 33.3 mph 60 % 0.0 in 0.0 W/m2 CLR
20:24 2.2 °F -5.0 °F 1023.2 in NNW 29.6 mph 29.6 mph 59 % 0.0 in 0.0 W/m2 CLR
20:29 2.2 °F -5.0 °F 1023.2 in North 38.9 mph 38.9 mph 59 % 0.0 in 0.0 W/m2 CLR
20:34 2.2 °F -5.0 °F 1023.2 in North 25.9 mph 25.9 mph 59 % 0.0 in 0.0 W/m2 CLR
20:39 2.8 °F -4.7 °F 1023.2 in NNW 51.8 mph 51.8 mph 58 % 0.0 in 0.0 W/m2 CLR
20:44 2.8 °F -4.9 °F 1023.6 in NNW 35.2 mph 35.2 mph 57 % 0.0 in 0.0 W/m2 CLR
20:49 2.8 °F -4.9 °F 1023.6 in NNW 31.5 mph 31.5 mph 57 % 0.0 in 0.0 W/m2 CLR
20:54 2.2 °F -5.4 °F 1023.6 in NNW 33.3 mph 33.3 mph 57 % 0.0 in 0.0 W/m2 CLR
20:59 2.2 °F -5.4 °F 1023.6 in NNW 31.5 mph 31.5 mph 57 % 0.0 in 0.0 W/m2 CLR
21:04 2.2 °F -5.4 °F 1023.6 in NNW 31.5 mph 31.5 mph 57 % 0.0 in 0.0 W/m2 CLR
21:14 2.2 °F -5.2 °F 1023.6 in North 40.7 mph 40.7 mph 58 % 0.0 in 0.0 W/m2 CLR
21:19 2.2 °F -5.2 °F 1023.6 in NNW 33.3 mph 33.3 mph 58 % 0.0 in 0.0 W/m2 CLR
21:24 2.2 °F -5.2 °F 1023.6 in NNW 33.3 mph 33.3 mph 58 % 0.0 in 0.0 W/m2 CLR
21:29 2.2 °F -5.2 °F 1023.6 in NNW 24.1 mph 24.1 mph 58 % 0.0 in 0.0 W/m2 CLR
21:39 1.7 °F -5.5 °F 1023.9 in NNW 20.4 mph 20.4 mph 59 % 0.0 in 0.0 W/m2 CLR
21:44 1.7 °F -5.3 °F 1023.9 in NNW 29.6 mph 29.6 mph 60 % 0.0 in 0.0 W/m2 CLR
21:49 1.7 °F -5.3 °F 1023.9 in NNW 31.5 mph 31.5 mph 60 % 0.0 in 0.0 W/m2 CLR
21:54 1.7 °F -5.1 °F 1023.9 in NNW 42.6 mph 42.6 mph 61 % 0.0 in 0.0 W/m2 CLR
21:59 1.7 °F -4.8 °F 1023.9 in NW 38.9 mph 38.9 mph 62 % 0.0 in 0.0 W/m2 CLR
22:04 1.7 °F -4.8 °F 1023.9 in NNW 48.1 mph 48.1 mph 62 % 0.0 in 0.0 W/m2 CLR
22:09 1.7 °F -4.8 °F 1023.9 in North 33.3 mph 33.3 mph 62 % 0.0 in 0.0 W/m2 CLR
22:14 1.7 °F -4.6 °F 1024.3 in NNW 33.3 mph 33.3 mph 63 % 0.0 in 0.0 W/m2 CLR
22:24 1.7 °F -4.4 °F 1024.3 in North 33.8 mph 33.8 mph 64 % 0.0 in 0.0 W/m2 CLR
22:29 1.7 °F -4.2 °F 1024.3 in NNW 35.2 mph 35.2 mph 65 % 0.0 in 0.0 W/m2 CLR
22:34 1.7 °F -4.2 °F 1024.3 in NNW 33.3 mph 33.3 mph 65 % 0.0 in 0.0 W/m2 CLR
22:44 1.7 °F -4.2 °F 1024.3 in NNW 35.2 mph 35.2 mph 65 % 0.0 in 0.0 W/m2 CLR
22:49 1.7 °F -4.0 °F 1024.3 in NW 24.1 mph 24.1 mph 66 % 0.0 in 0.0 W/m2 CLR
22:59 1.7 °F -4.0 °F 1024.3 in NNW 35.2 mph 35.2 mph 66 % 0.0 in 0.0 W/m2 CLR
23:09 1.7 °F -4.0 °F 1024.3 in WNW 25.9 mph 25.9 mph 66 % 0.0 in 0.0 W/m2 CLR
23:19 1.7 °F -4.0 °F 1024.3 in NW 40.7 mph 40.7 mph 66 % 0.0 in 0.0 W/m2 CLR
23:34 1.7 °F -4.0 °F 1024.6 in NW 27.8 mph 27.8 mph 66 % 0.0 in 0.0 W/m2 CLR
23:39 1.7 °F -4.0 °F 1024.9 in NW 24.1 mph 24.1 mph 66 % 0.0 in 0.0 W/m2 CLR
23:44 1.7 °F -4.0 °F 1024.9 in NW 25.9 mph 25.9 mph 66 % 0.0 in 0.0 W/m2 CLR
23:49 1.1 °F -4.6 °F 1025.3 in NW 25.9 mph 25.9 mph 66 % 0.0 in 0.0 W/m2 CLR
Lo Temps de Massalio
Compliments of Weather Underground - 1 mb